Thompson, Illinois
Current Conditions -  °F | °C
As of 2:15 AM on Thursday 29 Jan 2015 (Local Time) from KSFY Reporting Station
Clear Clear  
Wind Chill: 23°   Ceiling: Unl
Heat Index: 30°   Visibility: 7mi
Dew Point: 28°   Wind: 7mph
Humidity: 92%   Direction: 10°N
Pressure: 29.72"   Gusts: NA
Location:  41.9768°N, 90.0511°W
Report Text: KSFY 290815Z AUTO 01006KT 7SM CLR M01/M02 A2972 RMK AO2 T10101022
Loading
Personal Weather Stations






























Interactive Weather Map New forecast layout! Learn more

10-Day Weather Forecast

Advertisements
Track Severe Weather on mobile